Time;durP1;ratioP1;P1;durP2;ratioP2;P2;SDS_P1;SDS_P2;PMS_P1;PMS_P2;Temp;Humidity;BMP_temperature;BMP_pressure;BME280_temperature;BME280_humidity;BME280_pressure;Samples;Min_cycle;Max_cycle;Signal;HPM_P1;HPM_P2
2023/04/19 00:00:58;;;;;;;;;26.25;24.00;;;;;;;;4991367;28;45433;-81
2023/04/19 00:03:24;;;;;;;;;28.50;25.00;;;;;;;;4998176;28;45325;-78
2023/04/19 00:05:52;;;;;;;;;21.75;20.75;;;;;;;;4996496;28;45473;-80
2023/04/19 00:08:17;;;;;;;;;25.75;25.00;;;;;;;;4994411;28;47113;-79
2023/04/19 00:10:43;;;;;;;;;29.50;24.50;;;;;;;;4979029;28;45417;-79
2023/04/19 00:13:08;;;;;;;;;26.50;24.25;;;;;;;;4980261;28;45244;-79
2023/04/19 00:15:33;;;;;;;;;25.25;25.25;;;;;;;;4981951;28;44809;-79
2023/04/19 00:17:59;;;;;;;;;24.75;22.50;;;;;;;;4980508;28;45974;-79
2023/04/19 00:20:24;;;;;;;;;26.00;24.25;;;;;;;;4974946;28;45377;-78
2023/04/19 00:22:49;;;;;;;;;26.50;23.25;;;;;;;;4978484;28;45589;-79
2023/04/19 00:25:15;;;;;;;;;23.00;22.00;;;;;;;;4979116;28;45394;-79
2023/04/19 00:27:40;;;;;;;;;29.50;25.75;;;;;;;;4978253;28;47437;-79
2023/04/19 00:30:06;;;;;;;;;24.00;22.50;;;;;;;;4978583;28;45355;-78
2023/04/19 00:32:31;;;;;;;;;22.00;22.00;;;;;;;;4978611;28;46157;-77
2023/04/19 00:34:56;;;;;;;;;27.50;26.25;;;;;;;;4976881;28;45491;-78
2023/04/19 00:37:21;;;;;;;;;25.75;24.50;;;;;;;;4977938;28;45583;-78
2023/04/19 00:39:46;;;;;;;;;25.00;23.25;;;;;;;;4977674;28;45376;-78
2023/04/19 00:42:12;;;;;;;;;19.00;18.75;;;;;;;;4977084;28;45437;-77
2023/04/19 00:44:37;;;;;;;;;23.25;20.75;;;;;;;;4977434;28;45436;-77
2023/04/19 00:47:02;;;;;;;;;21.50;20.50;;;;;;;;4977379;28;45501;-77
2023/04/19 00:49:28;;;;;;;;;23.25;20.50;;;;;;;;4976899;28;45463;-77
2023/04/19 00:51:53;;;;;;;;;22.50;22.50;;;;;;;;4977438;28;45369;-78
2023/04/19 00:54:19;;;;;;;;;21.25;19.75;;;;;;;;4981329;28;45439;-77
2023/04/19 00:56:44;;;;;;;;;23.00;23.00;;;;;;;;4986286;28;46369;-77
2023/04/19 00:59:10;;;;;;;;;24.50;24.25;;;;;;;;4985674;28;45425;-78
2023/04/19 01:01:36;;;;;;;;;22.00;20.00;;;;;;;;4977163;28;46367;-77
2023/04/19 01:04:02;;;;;;;;;20.75;20.00;;;;;;;;4976010;28;45330;-78
2023/04/19 01:06:28;;;;;;;;;22.75;21.75;;;;;;;;4975498;28;45401;-77
2023/04/19 01:08:54;;;;;;;;;20.50;20.50;;;;;;;;4976062;28;45423;-78
2023/04/19 01:11:19;;;;;;;;;21.00;20.00;;;;;;;;4983776;28;45436;-76
2023/04/19 01:13:44;;;;;;;;;19.00;15.25;;;;;;;;4985605;28;45487;-77
2023/04/19 01:16:09;;;;;;;;;20.25;19.50;;;;;;;;4977383;28;46341;-77
2023/04/19 01:18:36;;;;;;;;;20.25;18.50;;;;;;;;4990096;28;45476;-76
2023/04/19 01:21:02;;;;;;;;;21.50;20.25;;;;;;;;4977221;28;45548;-77
2023/04/19 01:23:27;;;;;;;;;20.75;19.50;;;;;;;;4972602;28;45361;-77
2023/04/19 01:25:52;;;;;;;;;21.25;20.25;;;;;;;;4983626;28;45518;-78
2023/04/19 01:28:17;;;;;;;;;19.75;18.50;;;;;;;;4992851;28;45425;-77
2023/04/19 01:30:43;;;;;;;;;19.00;19.00;;;;;;;;4995628;28;45387;-77
2023/04/19 01:33:08;;;;;;;;;16.00;14.25;;;;;;;;4995886;28;45451;-77
2023/04/19 01:35:33;;;;;;;;;24.25;21.25;;;;;;;;4995337;28;45490;-78
2023/04/19 01:37:58;;;;;;;;;17.50;17.50;;;;;;;;4976679;28;45661;-77
2023/04/19 01:40:24;;;;;;;;;18.75;18.00;;;;;;;;4976371;28;45350;-77
2023/04/19 01:42:50;;;;;;;;;18.75;16.75;;;;;;;;4976511;28;45341;-78
2023/04/19 01:45:15;;;;;;;;;23.00;20.75;;;;;;;;4976161;28;46048;-77
2023/04/19 01:47:40;;;;;;;;;18.00;18.00;;;;;;;;4976228;28;45413;-76
2023/04/19 01:50:06;;;;;;;;;17.25;17.25;;;;;;;;4976763;28;45329;-78
2023/04/19 01:52:31;;;;;;;;;21.00;18.25;;;;;;;;4975071;28;45311;-76
2023/04/19 01:54:56;;;;;;;;;20.75;20.50;;;;;;;;4975983;28;45786;-77
2023/04/19 01:57:21;;;;;;;;;18.00;17.25;;;;;;;;4976025;28;45354;-78
2023/04/19 01:59:47;;;;;;;;;17.50;16.25;;;;;;;;4975827;28;45372;-78
2023/04/19 02:02:12;;;;;;;;;19.50;18.50;;;;;;;;4975452;28;45306;-77
2023/04/19 02:04:37;;;;;;;;;18.00;17.00;;;;;;;;4975091;28;45332;-78
2023/04/19 02:07:02;;;;;;;;;18.75;18.25;;;;;;;;4975784;28;45329;-77
2023/04/19 02:09:27;;;;;;;;;20.00;18.75;;;;;;;;4975999;28;45450;-77
2023/04/19 02:11:53;;;;;;;;;16.00;14.75;;;;;;;;4976011;28;45361;-78
2023/04/19 02:14:18;;;;;;;;;19.75;19.75;;;;;;;;4975728;28;46360;-77
2023/04/19 02:16:43;;;;;;;;;19.25;17.50;;;;;;;;4975848;28;45365;-77
2023/04/19 02:19:08;;;;;;;;;22.25;19.50;;;;;;;;4976147;28;45348;-77
2023/04/19 02:21:34;;;;;;;;;19.50;19.50;;;;;;;;4974841;28;45393;-76
2023/04/19 02:23:59;;;;;;;;;20.00;18.50;;;;;;;;4974509;28;46360;-77
2023/04/19 02:26:25;;;;;;;;;15.25;13.50;;;;;;;;4975738;28;45431;-76
2023/04/19 02:28:51;;;;;;;;;18.00;18.00;;;;;;;;4974857;28;45387;-77
2023/04/19 02:31:16;;;;;;;;;21.00;19.50;;;;;;;;4976034;28;45558;-77
2023/04/19 02:33:42;;;;;;;;;16.25;16.25;;;;;;;;4975593;28;46604;-77
2023/04/19 02:36:07;;;;;;;;;18.25;18.25;;;;;;;;4975392;28;45400;-78
2023/04/19 02:38:33;;;;;;;;;23.50;20.50;;;;;;;;4976116;28;45301;-77
2023/04/19 02:40:59;;;;;;;;;19.25;18.25;;;;;;;;4975551;28;45428;-78
2023/04/19 02:43:24;;;;;;;;;18.00;16.75;;;;;;;;4975374;28;45543;-78
2023/04/19 02:45:50;;;;;;;;;18.00;17.00;;;;;;;;4975566;28;45361;-78
2023/04/19 02:48:15;;;;;;;;;23.00;20.25;;;;;;;;4975504;28;45932;-78
2023/04/19 02:50:40;;;;;;;;;20.00;19.25;;;;;;;;4975703;28;45427;-77
2023/04/19 02:53:05;;;;;;;;;21.00;19.75;;;;;;;;4975366;28;46056;-78
2023/04/19 02:55:31;;;;;;;;;21.50;21.00;;;;;;;;4965272;28;45361;-77
2023/04/19 02:57:56;;;;;;;;;20.25;19.00;;;;;;;;4956190;28;45396;-77
2023/04/19 03:00:21;;;;;;;;;21.25;18.50;;;;;;;;4956265;28;45497;-77
2023/04/19 03:02:46;;;;;;;;;18.00;17.50;;;;;;;;4956099;28;46178;-77
2023/04/19 03:05:12;;;;;;;;;21.50;19.50;;;;;;;;4958775;28;45479;-77
2023/04/19 03:07:37;;;;;;;;;18.50;17.75;;;;;;;;4959252;28;45462;-77
2023/04/19 03:10:02;;;;;;;;;21.25;18.25;;;;;;;;4976527;28;45316;-78
2023/04/19 03:12:28;;;;;;;;;18.00;18.00;;;;;;;;4978504;28;47078;-77
2023/04/19 03:14:53;;;;;;;;;18.75;18.75;;;;;;;;4978825;28;45549;-77
2023/04/19 03:17:18;;;;;;;;;18.75;15.75;;;;;;;;4978566;28;45402;-77
2023/04/19 03:19:44;;;;;;;;;21.50;19.00;;;;;;;;4985006;28;45297;-79
2023/04/19 03:22:09;;;;;;;;;22.50;18.00;;;;;;;;4997744;28;46161;-78
2023/04/19 03:24:34;;;;;;;;;18.50;18.50;;;;;;;;4992385;28;45440;-78
2023/04/19 03:27:00;;;;;;;;;19.50;19.50;;;;;;;;4978778;28;45429;-78
2023/04/19 03:29:25;;;;;;;;;21.25;17.50;;;;;;;;4978486;28;45651;-77
2023/04/19 03:31:50;;;;;;;;;16.00;16.00;;;;;;;;4978131;28;46255;-77
2023/04/19 03:34:15;;;;;;;;;23.00;21.25;;;;;;;;4977845;28;45524;-77
2023/04/19 03:36:41;;;;;;;;;18.00;17.00;;;;;;;;4978296;28;45302;-77
2023/04/19 03:39:06;;;;;;;;;19.50;18.50;;;;;;;;4978376;28;45382;-78
2023/04/19 03:41:31;;;;;;;;;20.00;20.00;;;;;;;;4976746;28;48107;-78
2023/04/19 03:43:59;;;;;;;;;22.75;21.25;;;;;;;;4978050;28;45308;-78
2023/04/19 03:46:24;;;;;;;;;17.50;17.50;;;;;;;;4978331;28;45467;-76
2023/04/19 03:48:50;;;;;;;;;24.00;21.25;;;;;;;;4977722;28;45401;-78
2023/04/19 03:51:15;;;;;;;;;21.00;19.50;;;;;;;;4977892;28;45953;-78
2023/04/19 03:53:41;;;;;;;;;17.50;17.00;;;;;;;;4976843;28;45469;-77
2023/04/19 03:56:06;;;;;;;;;23.00;21.00;;;;;;;;4963313;28;45350;-78
2023/04/19 03:58:32;;;;;;;;;13.00;10.00;;;;;;;;4958596;28;45414;-77
2023/04/19 04:00:57;;;;;;;;;26.50;24.75;;;;;;;;4966752;28;45347;-78
2023/04/19 04:03:23;;;;;;;;;16.50;15.00;;;;;;;;4977676;28;45378;-78
2023/04/19 04:05:48;;;;;;;;;22.25;18.75;;;;;;;;4978109;28;45348;-77
2023/04/19 04:08:13;;;;;;;;;20.25;20.25;;;;;;;;4978052;28;46013;-77
2023/04/19 04:10:38;;;;;;;;;22.75;19.50;;;;;;;;4978251;28;46078;-78
2023/04/19 04:13:04;;;;;;;;;20.25;19.00;;;;;;;;4977907;28;45305;-78
2023/04/19 04:15:29;;;;;;;;;24.25;18.75;;;;;;;;4977275;28;45494;-77
2023/04/19 04:17:54;;;;;;;;;23.00;21.00;;;;;;;;4977933;28;45315;-78
2023/04/19 04:20:19;;;;;;;;;23.00;20.25;;;;;;;;4977773;28;46427;-78
2023/04/19 04:22:47;;;;;;;;;25.75;24.75;;;;;;;;4977793;28;45463;-77
2023/04/19 04:25:14;;;;;;;;;26.00;23.75;;;;;;;;4978259;28;45412;-77
2023/04/19 04:27:40;;;;;;;;;19.75;18.25;;;;;;;;4978443;28;45400;-78
2023/04/19 04:30:05;;;;;;;;;17.25;16.00;;;;;;;;4978471;28;47074;-78
2023/04/19 04:32:34;;;;;;;;;28.50;25.00;;;;;;;;4978622;28;45357;-79
2023/04/19 04:35:00;;;;;;;;;28.75;28.75;;;;;;;;4979609;28;45363;-78
2023/04/19 04:37:25;;;;;;;;;34.00;32.00;;;;;;;;4982650;28;45525;-77
2023/04/19 04:39:50;;;;;;;;;27.75;25.25;;;;;;;;4980534;28;46179;-77
2023/04/19 04:42:16;;;;;;;;;35.50;32.75;;;;;;;;4977589;28;45321;-78
2023/04/19 04:44:41;;;;;;;;;29.25;29.00;;;;;;;;4979380;28;45334;-78
2023/04/19 04:47:06;;;;;;;;;29.75;27.25;;;;;;;;4978080;28;45305;-78
2023/04/19 04:49:31;;;;;;;;;33.75;30.75;;;;;;;;4977429;28;46103;-78
2023/04/19 04:51:57;;;;;;;;;32.50;28.50;;;;;;;;4977332;28;45338;-78
2023/04/19 04:54:22;;;;;;;;;27.00;24.00;;;;;;;;4977480;28;45363;-78
2023/04/19 04:56:48;;;;;;;;;26.25;25.00;;;;;;;;4959044;28;45484;-79
2023/04/19 04:59:13;;;;;;;;;28.75;23.25;;;;;;;;4960296;28;46323;-80
2023/04/19 05:01:38;;;;;;;;;23.00;20.00;;;;;;;;4973719;28;45350;-79
2023/04/19 05:04:03;;;;;;;;;18.75;18.75;;;;;;;;4979631;28;45368;-79
2023/04/19 05:06:29;;;;;;;;;24.50;23.00;;;;;;;;4979096;28;45330;-78
2023/04/19 05:08:54;;;;;;;;;27.00;24.50;;;;;;;;4979362;28;47031;-79
2023/04/19 05:11:19;;;;;;;;;19.25;18.25;;;;;;;;4979066;28;45255;-79
2023/04/19 05:13:44;;;;;;;;;18.50;18.50;;;;;;;;4978084;28;45430;-80
2023/04/19 05:16:10;;;;;;;;;19.75;17.50;;;;;;;;4982112;28;45384;-82
2023/04/19 05:18:35;;;;;;;;;25.00;22.75;;;;;;;;4981402;28;46468;-83
2023/04/19 05:21:00;;;;;;;;;19.50;19.00;;;;;;;;4993970;28;45453;-82
2023/04/19 05:23:25;;;;;;;;;28.25;25.00;;;;;;;;5001251;28;45350;-81
2023/04/19 05:25:51;;;;;;;;;22.50;21.50;;;;;;;;4999609;28;45423;-81
2023/04/19 05:28:16;;;;;;;;;23.25;20.75;;;;;;;;4995158;28;46415;-83
2023/04/19 05:30:41;;;;;;;;;25.25;23.25;;;;;;;;4979636;28;45419;-82
2023/04/19 05:33:06;;;;;;;;;23.75;21.50;;;;;;;;4979606;28;45329;-82
2023/04/19 05:35:31;;;;;;;;;23.25;21.25;;;;;;;;4980365;28;45316;-83
2023/04/19 05:37:57;;;;;;;;;20.75;19.75;;;;;;;;4979576;28;47306;-81
2023/04/19 05:40:25;;;;;;;;;22.50;20.50;;;;;;;;4980726;28;46491;-83
2023/04/19 05:42:50;;;;;;;;;27.75;26.75;;;;;;;;4981665;28;45388;-83
2023/04/19 05:45:17;;;;;;;;;22.50;22.25;;;;;;;;4981280;28;45333;-83
2023/04/19 05:47:42;;;;;;;;;26.50;21.50;;;;;;;;4983017;28;45616;-84
2023/04/19 05:50:07;;;;;;;;;23.00;21.25;;;;;;;;4983496;28;45243;-83
2023/04/19 05:52:33;;;;;;;;;26.00;23.75;;;;;;;;4983233;28;45443;-83
2023/04/19 05:54:58;;;;;;;;;23.25;23.25;;;;;;;;4980232;28;45419;-85
2023/04/19 05:57:23;;;;;;;;;32.00;29.00;;;;;;;;4981463;28;45422;-84
2023/04/19 05:59:48;;;;;;;;;32.25;30.50;;;;;;;;4980349;28;45460;-85
2023/04/19 06:02:13;;;;;;;;;27.50;26.25;;;;;;;;4982058;28;45433;-84
2023/04/19 06:04:39;;;;;;;;;36.00;34.50;;;;;;;;4981478;28;45558;-84
2023/04/19 06:07:04;;;;;;;;;33.00;31.25;;;;;;;;4980270;28;45916;-84
2023/04/19 06:09:29;;;;;;;;;35.75;31.25;;;;;;;;4981331;28;45419;-84
2023/04/19 06:11:55;;;;;;;;;23.25;22.50;;;;;;;;4981475;28;45392;-87
2023/04/19 06:14:20;;;;;;;;;29.25;26.00;;;;;;;;4981127;28;45248;-84
2023/04/19 06:16:46;;;;;;;;;34.75;29.75;;;;;;;;4981019;28;45333;-84
2023/04/19 06:19:11;;;;;;;;;29.50;27.25;;;;;;;;4980994;28;45396;-83
2023/04/19 06:21:36;;;;;;;;;27.25;26.00;;;;;;;;4980743;28;45449;-83
2023/04/19 06:24:02;;;;;;;;;25.00;23.50;;;;;;;;4981425;28;45288;-84
2023/04/19 06:26:27;;;;;;;;;30.00;27.50;;;;;;;;4980250;28;45266;-83
2023/04/19 06:28:52;;;;;;;;;31.50;26.50;;;;;;;;4963561;28;45405;-84
2023/04/19 06:31:18;;;;;;;;;28.50;26.75;;;;;;;;4980994;28;45382;-82
2023/04/19 06:33:43;;;;;;;;;25.75;25.00;;;;;;;;4980662;28;45437;-83
2023/04/19 06:36:09;;;;;;;;;26.75;25.75;;;;;;;;4979443;28;46101;-83
2023/04/19 06:38:35;;;;;;;;;30.50;27.50;;;;;;;;4982350;28;45389;-83
2023/04/19 06:41:00;;;;;;;;;24.00;24.00;;;;;;;;4987972;28;45375;-85
2023/04/19 06:43:25;;;;;;;;;27.25;22.00;;;;;;;;4987731;28;45381;-84
2023/04/19 06:46:00;;;;;;;;;25.50;23.75;;;;;;;;4987487;28;46039;-83
2023/04/19 06:48:26;;;;;;;;;29.50;25.50;;;;;;;;4987101;28;45381;-83
2023/04/19 06:50:52;;;;;;;;;28.75;24.25;;;;;;;;4987586;28;45344;-84
2023/04/19 06:53:17;;;;;;;;;29.75;28.25;;;;;;;;4987247;28;45488;-84
2023/04/19 06:55:43;;;;;;;;;30.50;28.25;;;;;;;;4986092;28;46866;-84
2023/04/19 06:58:09;;;;;;;;;27.00;25.00;;;;;;;;4987583;28;45501;-85
2023/04/19 07:00:35;;;;;;;;;25.75;22.50;;;;;;;;4986882;28;45386;-86
2023/04/19 07:03:00;;;;;;;;;26.75;24.50;;;;;;;;4987532;28;45310;-83
2023/04/19 07:05:25;;;;;;;;;26.00;24.50;;;;;;;;4985940;28;46890;-85
2023/04/19 07:07:50;;;;;;;;;24.25;23.25;;;;;;;;4987302;28;45493;-85
2023/04/19 07:10:16;;;;;;;;;31.50;27.25;;;;;;;;4987447;28;45500;-84
2023/04/19 07:12:41;;;;;;;;;19.25;17.50;;;;;;;;4986607;28;45589;-85
2023/04/19 07:15:07;;;;;;;;;30.25;28.25;;;;;;;;4985578;28;48353;-83
2023/04/19 07:17:33;;;;;;;;;28.75;23.50;;;;;;;;4986840;28;45935;-86
2023/04/19 07:19:58;;;;;;;;;23.00;20.25;;;;;;;;4987827;28;45313;-84
2023/04/19 07:22:23;;;;;;;;;25.50;25.25;;;;;;;;4987334;28;45365;-83
2023/04/19 07:24:50;;;;;;;;;24.50;23.75;;;;;;;;4987217;28;46678;-83
2023/04/19 07:27:17;;;;;;;;;28.75;25.50;;;;;;;;4987070;28;45378;-86
2023/04/19 07:29:42;;;;;;;;;23.50;23.00;;;;;;;;4988164;28;45400;-85
2023/04/19 07:32:07;;;;;;;;;30.50;27.50;;;;;;;;4987952;28;45405;-84
2023/04/19 07:34:32;;;;;;;;;24.00;22.00;;;;;;;;4993773;28;45437;-84
2023/04/19 07:36:58;;;;;;;;;25.25;20.75;;;;;;;;4990083;28;45560;-83
2023/04/19 07:39:23;;;;;;;;;29.50;27.75;;;;;;;;4988679;28;45420;-82
2023/04/19 07:41:51;;;;;;;;;29.00;27.75;;;;;;;;4989694;28;45381;-84
2023/04/19 07:44:16;;;;;;;;;22.25;21.75;;;;;;;;4990614;28;46368;-85
2023/04/19 07:46:42;;;;;;;;;30.75;27.50;;;;;;;;4989481;28;45461;-85
2023/04/19 07:49:07;;;;;;;;;24.25;24.00;;;;;;;;4999860;28;44732;-87
2023/04/19 07:51:32;;;;;;;;;24.75;23.50;;;;;;;;4989683;28;44905;-86
2023/04/19 07:53:57;;;;;;;;;23.25;21.25;;;;;;;;4983541;28;45299;-84
2023/04/19 07:56:25;;;;;;;;;30.00;28.50;;;;;;;;4979874;28;45482;-80
2023/04/19 07:58:50;;;;;;;;;35.50;32.00;;;;;;;;4978917;28;45325;-82
2023/04/19 08:01:16;;;;;;;;;27.00;22.75;;;;;;;;4976959;28;45378;-82
2023/04/19 08:03:41;;;;;;;;;25.75;25.75;;;;;;;;4977756;28;45341;-82
2023/04/19 08:06:09;;;;;;;;;27.00;23.75;;;;;;;;4976475;28;45463;-83
2023/04/19 08:08:35;;;;;;;;;30.50;28.25;;;;;;;;4978006;28;45459;-83
2023/04/19 08:11:03;;;;;;;;;25.25;23.00;;;;;;;;4976762;28;45522;-85
2023/04/19 08:13:29;;;;;;;;;22.75;21.50;;;;;;;;4978112;28;45498;-83
2023/04/19 08:15:54;;;;;;;;;26.50;25.75;;;;;;;;4978078;28;45307;-84
2023/04/19 08:18:19;;;;;;;;;23.00;21.25;;;;;;;;4978137;28;45349;-84
2023/04/19 08:20:45;;;;;;;;;34.75;28.00;;;;;;;;4977646;28;45258;-83
2023/04/19 08:23:11;;;;;;;;;31.50;30.50;;;;;;;;4977035;28;46418;-83
2023/04/19 08:25:36;;;;;;;;;23.50;23.50;;;;;;;;4977709;28;45588;-83
2023/04/19 08:28:02;;;;;;;;;27.00;26.00;;;;;;;;4977493;28;45408;-82
2023/04/19 08:30:27;;;;;;;;;29.75;27.50;;;;;;;;4977785;28;45576;-76
2023/04/19 08:32:52;;;;;;;;;27.50;27.50;;;;;;;;4977136;28;45940;-76
2023/04/19 08:35:17;;;;;;;;;31.00;29.25;;;;;;;;4977150;28;45497;-75
2023/04/19 08:37:42;;;;;;;;;28.50;27.50;;;;;;;;4977337;28;45380;-76
2023/04/19 08:40:09;;;;;;;;;30.75;26.50;;;;;;;;4977406;28;45442;-76
2023/04/19 08:42:34;;;;;;;;;25.75;25.75;;;;;;;;4977206;28;45990;-77
2023/04/19 08:45:02;;;;;;;;;24.50;23.25;;;;;;;;4976921;28;45396;-77
2023/04/19 08:47:27;;;;;;;;;29.50;28.00;;;;;;;;4975752;28;45360;-75
2023/04/19 08:49:54;;;;;;;;;24.50;23.00;;;;;;;;4977145;28;45297;-76
2023/04/19 08:52:19;;;;;;;;;17.25;16.75;;;;;;;;4976904;28;45529;-77
2023/04/19 08:54:45;;;;;;;;;31.75;28.00;;;;;;;;4976761;28;45465;-77
2023/04/19 08:57:11;;;;;;;;;26.50;25.50;;;;;;;;4977499;28;45389;-77
2023/04/19 08:59:36;;;;;;;;;23.50;23.00;;;;;;;;4975584;28;45583;-76
2023/04/19 09:02:02;;;;;;;;;23.75;21.75;;;;;;;;4976494;28;45813;-78
2023/04/19 09:04:28;;;;;;;;;27.25;26.25;;;;;;;;4976904;28;45472;-76
2023/04/19 09:06:54;;;;;;;;;29.25;28.50;;;;;;;;4977055;28;45439;-77
2023/04/19 09:09:20;;;;;;;;;27.25;25.00;;;;;;;;4976995;28;45337;-76
2023/04/19 09:11:45;;;;;;;;;25.50;23.25;;;;;;;;4976638;28;46145;-78
2023/04/19 09:14:11;;;;;;;;;25.25;25.25;;;;;;;;4976684;28;45436;-78
2023/04/19 09:16:38;;;;;;;;;23.50;21.50;;;;;;;;4976685;28;45381;-77
2023/04/19 09:19:03;;;;;;;;;22.00;18.75;;;;;;;;4976982;28;45334;-78
2023/04/19 09:21:29;;;;;;;;;27.25;25.75;;;;;;;;4975887;28;47405;-77
2023/04/19 09:23:54;;;;;;;;;24.00;22.50;;;;;;;;4991056;28;45514;-77
2023/04/19 09:26:20;;;;;;;;;27.25;24.50;;;;;;;;4995608;28;45575;-77
2023/04/19 09:29:04;;;;;;;;;22.00;18.75;;;;;;;;4995699;28;45325;-77
2023/04/19 09:31:31;;;;;;;;;21.75;20.75;;;;;;;;4995394;28;45435;-76
2023/04/19 09:33:56;;;;;;;;;11.00;10.75;;;;;;;;4994531;28;45378;-76
2023/04/19 09:36:26;;;;;;;;;23.25;20.50;;;;;;;;4994308;28;45485;-78
2023/04/19 09:38:51;;;;;;;;;20.00;18.50;;;;;;;;4994820;28;45349;-77
2023/04/19 09:41:16;;;;;;;;;22.50;18.25;;;;;;;;4995480;28;46804;-77
2023/04/19 09:43:42;;;;;;;;;21.00;19.50;;;;;;;;4995665;28;45372;-77
2023/04/19 09:46:07;;;;;;;;;16.25;15.00;;;;;;;;4996036;28;45329;-78
2023/04/19 09:48:32;;;;;;;;;25.00;23.75;;;;;;;;4976668;28;45252;-78
2023/04/19 09:50:59;;;;;;;;;21.50;20.50;;;;;;;;4974933;28;45891;-78
2023/04/19 09:53:24;;;;;;;;;18.00;16.75;;;;;;;;4975846;28;45633;-78
2023/04/19 09:55:50;;;;;;;;;14.75;13.50;;;;;;;;4978974;28;45455;-78
2023/04/19 09:58:16;;;;;;;;;18.00;14.75;;;;;;;;4976231;28;45302;-78
2023/04/19 10:00:43;;;;;;;;;22.50;22.25;;;;;;;;4975827;28;45505;-77
2023/04/19 10:03:08;;;;;;;;;22.75;18.00;;;;;;;;4975891;28;45418;-78
2023/04/19 10:05:35;;;;;;;;;15.50;15.50;;;;;;;;4975190;28;45352;-77
2023/04/19 10:08:01;;;;;;;;;17.00;12.00;;;;;;;;4976364;28;45351;-79
2023/04/19 10:10:28;;;;;;;;;18.75;16.75;;;;;;;;4975663;28;46090;-77
2023/04/19 10:12:55;;;;;;;;;8.50;8.50;;;;;;;;4975464;28;45464;-78
2023/04/19 10:15:21;;;;;;;;;20.00;17.75;;;;;;;;4974421;28;45416;-76
2023/04/19 10:17:47;;;;;;;;;11.50;11.50;;;;;;;;4975645;28;45421;-76
2023/04/19 10:20:17;;;;;;;;;20.00;17.25;;;;;;;;4976536;28;46455;-76
2023/04/19 10:22:43;;;;;;;;;14.00;14.00;;;;;;;;4976010;28;45244;-74
2023/04/19 10:25:10;;;;;;;;;18.00;15.00;;;;;;;;4975335;28;45302;-77
2023/04/19 10:27:35;;;;;;;;;12.00;12.00;;;;;;;;4975844;28;45531;-77
2023/04/19 10:30:04;;;;;;;;;16.25;16.25;;;;;;;;4975526;28;45387;-75
2023/04/19 10:32:37;;;;;;;;;17.75;16.50;;;;;;;;4975851;28;45808;-76
2023/04/19 10:35:06;;;;;;;;;14.75;13.50;;;;;;;;4975903;28;45402;-77
2023/04/19 10:37:32;;;;;;;;;17.00;17.00;;;;;;;;4975678;28;45347;-77
2023/04/19 10:39:57;;;;;;;;;15.25;15.00;;;;;;;;4977194;28;45444;-76
2023/04/19 10:42:22;;;;;;;;;20.75;20.75;;;;;;;;4975518;28;45449;-76
2023/04/19 10:45:06;;;;;;;;;19.75;18.00;;;;;;;;4975752;28;45285;-77
2023/04/19 10:47:43;;;;;;;;;17.75;15.75;;;;;;;;4974684;28;45504;-76
2023/04/19 10:50:08;;;;;;;;;18.25;17.50;;;;;;;;4975129;28;46060;-76
2023/04/19 10:52:33;;;;;;;;;16.50;15.50;;;;;;;;4974158;28;45689;-79
2023/04/19 10:55:02;;;;;;;;;12.25;10.50;;;;;;;;4967405;28;45504;-81
2023/04/19 10:57:47;;;;;;;;;17.25;17.25;;;;;;;;4974706;28;45591;-80
2023/04/19 11:00:24;;;;;;;;;15.25;15.25;;;;;;;;4974502;28;48310;-80
2023/04/19 11:02:49;;;;;;;;;17.75;17.00;;;;;;;;4975267;28;45604;-79
2023/04/19 11:05:15;;;;;;;;;11.50;10.50;;;;;;;;4974399;28;45528;-80
2023/04/19 11:07:40;;;;;;;;;12.50;11.50;;;;;;;;4975568;28;45568;-79
2023/04/19 11:10:06;;;;;;;;;14.75;13.50;;;;;;;;4976527;28;45537;-80
2023/04/19 11:12:32;;;;;;;;;16.25;15.25;;;;;;;;4957775;28;45560;-79
2023/04/19 11:14:59;;;;;;;;;16.25;14.00;;;;;;;;4970092;28;45334;-79
2023/04/19 11:17:29;;;;;;;;;14.25;14.25;;;;;;;;4970906;28;45336;-79
2023/04/19 11:19:56;;;;;;;;;13.50;12.50;;;;;;;;4958468;28;45544;-79
2023/04/19 11:22:33;;;;;;;;;18.00;16.75;;;;;;;;4972687;28;45512;-79
2023/04/19 11:25:05;;;;;;;;;12.50;11.50;;;;;;;;4987366;28;45381;-79
2023/04/19 11:27:31;;;;;;;;;3.25;3.00;;;;;;;;4977564;28;45497;-79
2023/04/19 11:30:04;;;;;;;;;13.50;12.50;;;;;;;;4978265;28;46262;-79
2023/04/19 11:32:29;;;;;;;;;13.75;13.75;;;;;;;;4977892;28;45552;-79
2023/04/19 11:34:55;;;;;;;;;12.00;10.50;;;;;;;;4978243;28;45398;-79
2023/04/19 11:37:20;;;;;;;;;16.00;14.50;;;;;;;;4978040;28;45499;-79
2023/04/19 11:39:46;;;;;;;;;15.25;13.75;;;;;;;;4978303;28;45999;-79
2023/04/19 11:42:18;;;;;;;;;9.25;9.25;;;;;;;;4978295;28;45476;-78
2023/04/19 11:44:47;;;;;;;;;8.25;8.25;;;;;;;;4978156;28;45431;-79
2023/04/19 11:47:12;;;;;;;;;10.75;10.75;;;;;;;;4978109;28;45393;-79
2023/04/19 11:49:38;;;;;;;;;16.75;13.75;;;;;;;;4977946;28;46199;-79
2023/04/19 11:52:04;;;;;;;;;10.50;10.50;;;;;;;;4978054;28;45667;-81
2023/04/19 11:54:30;;;;;;;;;5.25;5.25;;;;;;;;4977950;28;45357;-79
2023/04/19 11:56:56;;;;;;;;;11.50;10.50;;;;;;;;4978124;28;45454;-81
2023/04/19 11:59:21;;;;;;;;;7.25;6.75;;;;;;;;4977918;28;45468;-79
2023/04/19 12:01:46;;;;;;;;;9.25;9.25;;;;;;;;4977821;28;45443;-79
2023/04/19 12:04:11;;;;;;;;;8.50;8.50;;;;;;;;4976483;28;45515;-80
2023/04/19 12:06:37;;;;;;;;;11.00;8.25;;;;;;;;4978139;28;45381;-80
2023/04/19 12:09:06;;;;;;;;;11.00;10.00;;;;;;;;4977602;28;46535;-81
2023/04/19 12:11:41;;;;;;;;;11.00;11.00;;;;;;;;4977872;28;45318;-79
2023/04/19 12:14:10;;;;;;;;;8.25;8.25;;;;;;;;4977757;28;45344;-80
2023/04/19 12:16:36;;;;;;;;;11.75;10.00;;;;;;;;4977555;28;45342;-79
2023/04/19 12:19:17;;;;;;;;;6.75;6.75;;;;;;;;4977548;28;45360;-82
2023/04/19 12:21:43;;;;;;;;;12.50;11.75;;;;;;;;4977183;28;45531;-79
2023/04/19 12:24:08;;;;;;;;;7.75;7.75;;;;;;;;4977574;28;45737;-79
2023/04/19 12:26:34;;;;;;;;;10.75;8.75;;;;;;;;4977680;28;45513;-80
2023/04/19 12:29:00;;;;;;;;;11.25;9.00;;;;;;;;4977992;28;46108;-79
2023/04/19 12:31:25;;;;;;;;;10.75;10.75;;;;;;;;4977276;28;45334;-78
2023/04/19 12:33:51;;;;;;;;;13.75;12.25;;;;;;;;4977399;28;45387;-79
2023/04/19 12:36:16;;;;;;;;;12.50;11.75;;;;;;;;4976898;28;45440;-78
2023/04/19 12:38:41;;;;;;;;;9.50;9.50;;;;;;;;4977223;28;46710;-79
2023/04/19 12:41:06;;;;;;;;;8.00;8.00;;;;;;;;4977565;28;45314;-79
2023/04/19 12:43:32;;;;;;;;;10.25;9.50;;;;;;;;4977257;28;45381;-78
2023/04/19 12:45:57;;;;;;;;;12.00;12.00;;;;;;;;4976873;28;45510;-79
2023/04/19 12:48:23;;;;;;;;;10.25;10.25;;;;;;;;4977125;28;45349;-78
2023/04/19 12:50:48;;;;;;;;;7.00;7.00;;;;;;;;4977104;28;45476;-79
2023/04/19 12:53:13;;;;;;;;;9.75;8.75;;;;;;;;4977295;28;45701;-78
2023/04/19 12:55:39;;;;;;;;;8.50;8.50;;;;;;;;4966268;28;45437;-78
2023/04/19 12:58:04;;;;;;;;;11.50;10.50;;;;;;;;4957638;28;46162;-80
2023/04/19 13:00:30;;;;;;;;;8.50;7.75;;;;;;;;4963477;28;45342;-79
2023/04/19 13:02:55;;;;;;;;;8.50;7.50;;;;;;;;4977316;28;45385;-79
2023/04/19 13:05:20;;;;;;;;;6.75;6.00;;;;;;;;4977181;28;45429;-79
2023/04/19 13:07:45;;;;;;;;;7.50;7.50;;;;;;;;4977112;28;46283;-78
2023/04/19 13:10:11;;;;;;;;;6.00;5.00;;;;;;;;4976929;28;45563;-79
2023/04/19 13:12:37;;;;;;;;;5.00;5.00;;;;;;;;4976713;28;45413;-78
2023/04/19 13:15:02;;;;;;;;;6.00;5.50;;;;;;;;4977120;28;45338;-80
2023/04/19 13:17:27;;;;;;;;;8.00;8.00;;;;;;;;4976421;28;45956;-78
2023/04/19 13:19:52;;;;;;;;;7.00;5.00;;;;;;;;4976962;28;45385;-79
2023/04/19 13:22:18;;;;;;;;;7.00;7.00;;;;;;;;4976637;28;45445;-78
2023/04/19 13:24:43;;;;;;;;;7.75;5.75;;;;;;;;4976752;28;45260;-79
2023/04/19 13:27:08;;;;;;;;;5.25;4.50;;;;;;;;4976604;28;45483;-79
2023/04/19 13:29:33;;;;;;;;;6.00;5.50;;;;;;;;4976669;28;45270;-80
2023/04/19 13:31:58;;;;;;;;;7.00;6.00;;;;;;;;4976818;28;45330;-78
2023/04/19 13:34:24;;;;;;;;;8.00;6.00;;;;;;;;4976527;28;45511;-78
2023/04/19 13:36:49;;;;;;;;;6.25;5.00;;;;;;;;4976507;28;46479;-78
2023/04/19 13:39:14;;;;;;;;;5.00;5.00;;;;;;;;4976681;28;45274;-79
2023/04/19 13:41:40;;;;;;;;;5.00;5.00;;;;;;;;4976269;28;46662;-79
2023/04/19 13:44:05;;;;;;;;;6.00;6.00;;;;;;;;4976450;28;45372;-79
2023/04/19 13:46:31;;;;;;;;;4.00;4.00;;;;;;;;4976220;28;45414;-78
2023/04/19 13:48:56;;;;;;;;;4.25;3.00;;;;;;;;4975311;28;45472;-80
2023/04/19 13:51:21;;;;;;;;;7.25;5.75;;;;;;;;4976418;28;45475;-79
2023/04/19 13:53:47;;;;;;;;;7.50;6.50;;;;;;;;4976186;28;45515;-79
2023/04/19 13:56:12;;;;;;;;;6.75;5.50;;;;;;;;4960586;28;46567;-80
2023/04/19 13:58:37;;;;;;;;;6.75;5.25;;;;;;;;4955648;28;45342;-79
2023/04/19 14:01:03;;;;;;;;;6.00;6.00;;;;;;;;4957069;28;45306;-80
2023/04/19 14:03:28;;;;;;;;;5.25;3.50;;;;;;;;4956761;28;45372;-78
2023/04/19 14:05:53;;;;;;;;;4.50;4.25;;;;;;;;4973782;28;45588;-80
2023/04/19 14:08:19;;;;;;;;;4.75;3.75;;;;;;;;4975046;28;45413;-79
2023/04/19 14:10:45;;;;;;;;;5.00;5.00;;;;;;;;4975979;28;45490;-78
2023/04/19 14:13:10;;;;;;;;;5.00;5.00;;;;;;;;4976171;28;45373;-79